TimeEDT,TemperatureF,Dew PointF,Humidity,Sea Level PressureIn,VisibilityMPH,Wind Direction,Wind SpeedMPH,Gust SpeedMPH,PrecipitationIn,Events,Conditions,WindDirDegrees,DateUTC
12:15 AM,34.0,31.8,92,30.36,10.0,North,5.8,-,N/A,,Clear,10,2013-04-17 04:15:00
12:34 AM,33.8,31.6,92,30.36,10.0,North,5.8,-,N/A,,Clear,360,2013-04-17 04:34:00
12:55 AM,34.2,31.1,89,30.37,10.0,North,6.9,-,N/A,,Clear,350,2013-04-17 04:55:00
1:14 AM,33.8,31.5,91,30.37,10.0,North,4.6,-,N/A,,Clear,360,2013-04-17 05:14:00
1:34 AM,33.3,31.5,93,30.38,10.0,North,4.6,-,N/A,,Clear,350,2013-04-17 05:34:00
1:55 AM,33.1,31.3,93,30.39,10.0,Calm,Calm,-,N/A,,Clear,0,2013-04-17 05:55:00
2:14 AM,32.9,31.1,93,30.39,10.0,Calm,Calm,-,N/A,,Clear,0,2013-04-17 06:14:00
2:34 AM,32.9,31.6,95,30.39,10.0,Calm,Calm,-,N/A,,Clear,0,2013-04-17 06:34:00
2:54 AM,32.0,31.6,99,30.39,10.0,Calm,Calm,-,N/A,,Clear,0,2013-04-17 06:54:00
3:14 AM,32.0,31.5,98,30.40,10.0,Calm,Calm,-,N/A,,Clear,0,2013-04-17 07:14:00
3:34 AM,30.7,30.2,98,30.40,10.0,Calm,Calm,-,N/A,,Clear,0,2013-04-17 07:34:00
3:54 AM,30.4,30.2,99,30.40,10.0,Calm,Calm,-,N/A,,Clear,0,2013-04-17 07:54:00
4:15 AM,30.7,30.2,98,30.40,10.0,North,3.5,-,N/A,,Clear,350,2013-04-17 08:15:00
4:34 AM,32.0,31.5,98,30.40,10.0,North,3.5,-,N/A,,Clear,360,2013-04-17 08:34:00
4:55 AM,30.4,29.8,98,30.40,10.0,Calm,Calm,-,N/A,,Clear,0,2013-04-17 08:55:00
5:14 AM,29.8,29.8,100,30.41,10.0,Calm,Calm,-,N/A,,Clear,0,2013-04-17 09:14:00
5:34 AM,28.9,28.9,100,30.41,10.0,Calm,Calm,-,N/A,,Clear,0,2013-04-17 09:34:00
5:53 AM,28.2,28.2,100,30.41,10.0,Calm,Calm,-,N/A,,Clear,0,2013-04-17 09:53:00
6:14 AM,28.2,28.2,100,30.41,10.0,Calm,Calm,-,N/A,,Clear,0,2013-04-17 10:14:00
6:35 AM,29.1,29.1,100,30.41,10.0,Calm,Calm,-,N/A,,Clear,0,2013-04-17 10:35:00
6:54 AM,29.8,29.8,100,30.42,10.0,Calm,Calm,-,N/A,,Clear,0,2013-04-17 10:54:00
7:15 AM,29.1,29.1,100,30.42,10.0,Calm,Calm,-,N/A,,Clear,0,2013-04-17 11:15:00
7:35 AM,29.3,29.3,100,30.42,10.0,Calm,Calm,-,N/A,,Clear,0,2013-04-17 11:35:00
7:54 AM,30.4,30.4,100,30.42,10.0,Calm,Calm,-,N/A,,Clear,0,2013-04-17 11:54:00
8:15 AM,31.8,31.6,99,30.42,10.0,East,4.6,-,N/A,,Clear,90,2013-04-17 12:15:00
8:34 AM,32.2,31.8,99,30.42,10.0,East,4.6,-,N/A,,Clear,100,2013-04-17 12:34:00
8:54 AM,33.3,32.0,95,30.41,10.0,East,4.6,-,N/A,,Clear,80,2013-04-17 12:54:00
9:15 AM,34.5,32.2,91,30.41,10.0,ESE,5.8,-,N/A,,Clear,110,2013-04-17 13:15:00
9:34 AM,35.6,32.4,88,30.42,10.0,ESE,6.9,-,N/A,,Clear,120,2013-04-17 13:34:00
10:15 AM,38.5,32.0,78,30.42,10.0,ESE,11.5,-,N/A,,Clear,120,2013-04-17 14:15:00
10:34 AM,39.2,32.0,75,30.42,10.0,East,9.2,-,N/A,,Clear,100,2013-04-17 14:34:00
10:55 AM,40.6,32.2,72,30.42,10.0,ESE,9.2,-,N/A,,Clear,110,2013-04-17 14:55:00
11:14 AM,41.2,32.2,70,30.42,10.0,East,8.1,-,N/A,,Clear,100,2013-04-17 15:14:00
11:34 AM,42.1,32.0,67,30.41,10.0,ESE,9.2,-,N/A,,Clear,120,2013-04-17 15:34:00
11:55 AM,43.2,32.0,65,30.40,10.0,ESE,10.4,-,N/A,,Clear,120,2013-04-17 15:55:00
12:14 PM,43.9,32.0,63,30.39,10.0,East,11.5,-,N/A,,Clear,100,2013-04-17 16:14:00
12:34 PM,45.0,32.0,60,30.36,10.0,ESE,11.5,-,N/A,,Clear,110,2013-04-17 16:34:00
12:55 PM,45.0,32.0,60,30.37,10.0,ESE,10.4,-,N/A,,Clear,120,2013-04-17 16:55:00
1:14 PM,46.0,31.8,58,30.35,10.0,East,11.5,-,N/A,,Clear,90,2013-04-17 17:14:00
1:34 PM,46.8,32.0,57,30.34,10.0,East,10.4,-,N/A,,Clear,90,2013-04-17 17:34:00
1:55 PM,47.8,32.0,54,30.34,10.0,East,10.4,-,N/A,,Clear,100,2013-04-17 17:55:00
2:14 PM,48.0,32.0,54,30.32,10.0,East,11.5,-,N/A,,Clear,90,2013-04-17 18:14:00
2:35 PM,47.5,32.0,55,30.31,10.0,ESE,10.4,-,N/A,,Scattered Clouds,110,2013-04-17 18:35:00
2:55 PM,48.2,31.5,52,30.30,10.0,East,13.8,18.4,N/A,,Mostly Cloudy,100,2013-04-17 18:55:00
3:14 PM,47.5,31.8,55,30.28,10.0,ESE,12.7,-,N/A,,Mostly Cloudy,110,2013-04-17 19:14:00
3:35 PM,47.7,31.5,53,30.27,10.0,ESE,12.7,-,N/A,,Scattered Clouds,110,2013-04-17 19:35:00
3:54 PM,46.8,31.1,55,30.28,10.0,ESE,10.4,-,N/A,,Mostly Cloudy,110,2013-04-17 19:54:00
4:35 PM,45.9,31.5,57,30.28,10.0,ESE,6.9,-,N/A,,Overcast,110,2013-04-17 20:35:00
4:54 PM,46.4,31.6,56,30.28,10.0,ESE,10.4,-,N/A,,Overcast,110,2013-04-17 20:54:00
5:14 PM,45.9,31.6,58,30.27,10.0,East,10.4,17.3,N/A,,Overcast,100,2013-04-17 21:14:00
5:35 PM,45.3,31.1,58,30.25,10.0,East,12.7,-,N/A,,Overcast,100,2013-04-17 21:35:00
5:54 PM,44.8,31.6,60,30.24,10.0,East,8.1,-,N/A,,Overcast,100,2013-04-17 21:54:00
6:14 PM,44.4,31.6,61,30.23,10.0,ESE,10.4,-,N/A,,Overcast,110,2013-04-17 22:14:00
6:35 PM,43.3,30.9,62,30.22,10.0,ESE,12.7,17.3,N/A,,Overcast,110,2013-04-17 22:35:00
6:54 PM,42.6,30.9,63,30.22,10.0,East,13.8,19.6,N/A,,Overcast,100,2013-04-17 22:54:00
7:14 PM,42.1,31.1,65,30.21,10.0,East,9.2,-,N/A,,Overcast,90,2013-04-17 23:14:00
7:35 PM,41.2,31.1,67,30.20,10.0,East,10.4,-,N/A,,Overcast,100,2013-04-17 23:35:00
7:54 PM,41.0,30.9,67,30.20,10.0,ESE,11.5,-,N/A,,Overcast,120,2013-04-17 23:54:00
8:15 PM,40.6,31.1,69,30.19,10.0,ESE,11.5,-,N/A,,Overcast,110,2013-04-18 00:15:00
8:34 PM,39.7,30.7,70,30.19,10.0,ESE,12.7,-,N/A,,Overcast,110,2013-04-18 00:34:00
8:54 PM,40.1,30.4,68,30.19,10.0,ESE,11.5,-,N/A,,Overcast,110,2013-04-18 00:54:00
9:14 PM,39.4,30.7,71,30.17,10.0,ESE,13.8,18.4,N/A,,Overcast,110,2013-04-18 01:14:00
9:34 PM,38.3,31.5,76,30.15,10.0,ESE,12.7,-,N/A,,Overcast,110,2013-04-18 01:34:00
9:54 PM,37.4,32.0,81,30.14,7.0,ESE,11.5,-,N/A,,Overcast,120,2013-04-18 01:54:00
10:14 PM,36.9,33.3,87,30.15,7.0,ESE,8.1,-,N/A,Rain,Light Rain,110,2013-04-18 02:14:00
10:54 PM,36.1,33.8,91,30.15,7.0,East,6.9,-,N/A,,Overcast,100,2013-04-18 02:54:00
11:14 PM,36.0,34.2,93,30.13,5.0,East,8.1,-,N/A,,Overcast,90,2013-04-18 03:14:00
11:34 PM,36.5,34.7,93,30.13,10.0,East,8.1,-,N/A,,Overcast,80,2013-04-18 03:34:00
11:55 PM,36.5,34.9,94,30.12,5.0,East,9.2,-,N/A,,Overcast,90,2013-04-18 03:55:00